V/Λ SELECT: Month and Year
OR > Month
Monthly Climatological Summary for Feb 2010
Name: www.delerius-weather.com City: Winterton State: North Lincolnshire
Elevation: 42 m Lat: N 53° 39' 10" Lon: W 000° 36' 49"
Temperature (°C), Rain (mm), Wind Speed (mph)
Heat Cool Avg
Mean Deg Deg Wind Dom
Day Temp High Time Low Time Days Days Rain Speed High Time Dir
----------------------------------------------------------------------------------
1 2.7 3.8 21:00 -1.2 02:15 14.4 0.0 0.0 8.3 21.0 04:30 SSW
2 2.8 6.3 21:00 0.3 02:15 14.4 0.0 2.8 7.8 21.0 10:00 WSW
3 1.9 3.5 21:00 -2.4 02:15 14.4 0.0 1.0 4.3 18.0 19:00 SE
4 2.6 4.9 21:00 -0.6 02:15 14.4 0.0 0.0 3.4 18.0 17:45 E
5 4.1 6.1 21:00 1.6 02:15 14.4 0.0 2.6 2.8 21.0 03:30 ENE
6 2.4 5.2 21:00 -1.1 02:15 14.4 0.0 0.4 2.9 18.0 23:15 NNW
7 3.8 4.5 21:00 3.2 02:15 14.4 0.0 0.4 4.4 19.0 21:15 NE
8 2.8 3.4 21:00 1.8 02:15 14.4 0.0 0.2 8.9 26.0 14:00 NNE
9 2.7 5.1 21:00 0.7 02:15 14.4 0.0 4.0 5.5 23.0 05:00 NW
10 1.8 3.3 21:00 -0.2 02:15 14.4 0.0 1.4 7.6 29.0 00:45 NNE
11 3.1 4.4 21:00 0.9 02:15 14.4 0.0 0.4 6.9 24.0 03:15 W
12 3.3 5.2 21:00 2.2 02:15 14.4 0.0 0.8 5.1 20.0 21:15 NNE
13 3.2 5.6 21:00 2.4 02:15 14.4 0.0 0.8 4.5 18.0 00:30 W
14 3.2 4.1 21:00 2.8 02:15 14.4 0.0 2.6 2.5 12.0 02:30 NE
15 0.8 2.2 21:00 -2.4 02:15 14.4 0.0 1.6 3.4 21.0 20:30 S
16 4.6 7.9 21:00 0.7 02:15 14.4 0.0 2.2 4.2 16.0 02:00 SE
17 2.3 4.3 21:00 0.9 02:15 14.4 0.0 1.6 0.9 8.0 17:15 ESE
18 2.8 3.5 21:00 -0.6 02:15 14.4 0.0 1.6 2.2 14.0 23:59 NNE
19 2.8 4.6 21:00 -0.3 02:15 14.4 0.0 1.6 7.8 20.0 03:00 WSW
20 2.7 4.8 21:00 -2.2 02:15 14.4 0.0 0.0 3.4 13.0 00:15 SW
21 0.9 2.3 21:00 -2.7 02:15 14.4 0.0 2.6 5.3 22.0 20:45 SW
22 1.2 4.2 21:00 -2.3 02:15 14.4 0.0 0.0 7.3 23.0 10:00 NE
23 1.8 4.5 21:00 1.8 02:15 14.4 0.0 0.4 9.9 24.0 18:00 E
24 3.9 7.4 21:00 2.1 02:15 14.4 0.0 3.4 4.1 22.0 01:30 NNW
25 4.1 5.6 21:00 3.4 02:15 14.4 0.0 1.2 3.9 16.0 23:59 NE
26 3.2 5.2 21:00 1.1 02:15 14.4 0.0 11.8 11.7 41.0 15:30 WNW
27 1.9 4.6 21:00 -0.2 02:15 14.4 0.0 0.0 0.6 9.0 16:30 E
28 2.4 4.8 21:00 2.3 02:15 14.4 0.0 0.0 0.2 18.0 08:00 NE
---------------------------------------------------------------------------------
2.7 7.9 1 -2.7 1 403.2 0.0 45.4 5.0 41.0 26 NNW
Max >= 27.0: 0
Max <= 0.0: 0
Min <= 0.0: 0
Min <= -18.0: 0
Max Rain: 11.8 on day 26
Days of Rain: 22 (>= 0.2 mm) 8 (>= 2.0 mm) 0 (>= 20.0 mm)
Heat Base: 18.3 Cool Base: 18.3 Method: Integration